Tipton Airport Fort Meade(Odenton) US
ICAO: KFME
IATA: FME
Category: Medium
Scheduled Services: No

Elevation: 150 ft
TransAlt. 18000 ft.

Airport Communications:
POTOMAC APP DEP:119.7
AWOS 3:123.925
CTAF/UNICOM:123.05

KFME Zoom In..

Runways:

(A) RW 10 length 3000 ft width 75 ft
---- / hdg 104

(B) RW 28 length 3000 ft width 75 ft
---- / hdg 284

Location; KFME
Day. 26 / Time. 13.57 Zulu
* Altimeter: 29.91
* Temperature: 26° c. 78.8°f.
* Wind from: 250° Speed 05 kn.
Dewpoint: 21° c.
Visibility: 10 Statute Miles.
Clouds: Clear (automated report).

KFME 261357Z AUTO 25005KT 10SM CLR 26/21 A2991 RMK AO1


Wind From 250°
Speed 05 kn.

 
 
jpsmedia.com for Web Design SOUNDCLOUD worldairports.se 2018   terms of use